Terminal Aerodrome Forecast
Issued by NWS

Home | Current Version | Previous Version | Text Only | Print | Product List | Glossary On
Versions: 1 2 3 4 5 6 7 8 9 10 11 12 13 14 15 16 17 18
000
FTUS44 KMAF 221700
TAFHOB
TAF
KHOB 221722Z 2218/2318 19009KT P6SM FEW200
     FM222000 17012G17KT P6SM SCT100 SCT250
     FM230200 18010KT P6SM BKN200=

USA.gov is the U.S. government's official web portal to all federal, state and local government web resources and services.